Genesis Valiant — WDG9348 — position and weather

sailwx.info

Track history (hours):
 
Tides and Currents Weather Stations Pressure Air Temp Water Temp Dewpoint Dewpoint Depression Visibility Wind Speed Wind Dir Waves Ship Positions

Genesis Valiant

Owner: Genesis Marine, LLC, Houston, TX. More information available from US FCC via Universal Licensing System and Coast Guard Vessel Documentation Center.

Last reported at 2018-Jan-21 20:33 UTC. Time now 2018-Jan-23 03:49 UTC.
Position N 39°33' W 075°33'.

Length 30 m; draft 5.1 m.

Type: Towing. MMSI: 338495000.

Date/timePositionNaut miles runAvg speedWind from/ knotsBaromVisibWave heightAir tempDewpointWater temp
2018-Jan-21 20:33N 39°33' W 075°33'0 0.3
2018-Jan-21 20:30N 39°33' W 075°33'0 0.1
2018-Jan-21 19:30N 39°33' W 075°33'0 0.0
2018-Jan-21 08:54N 39°33' W 075°33'0 0.2
2018-Jan-21 07:51N 39°33' W 075°33'0 0.2
2018-Jan-21 07:30N 39°33' W 075°33'0 0.0
2018-Jan-21 06:57N 39°33' W 075°33'0 0.0
2018-Jan-21 06:30N 39°33' W 075°33'0 0.0
2018-Jan-21 05:57N 39°33' W 075°33'0 0.0
2018-Jan-21 05:30N 39°33' W 075°33'0 0.0
2018-Jan-21 05:00N 39°33' W 075°33'0 0.0
2018-Jan-21 04:24N 39°33' W 075°33'0 0.1
2018-Jan-20 21:10N 39°33' W 075°33'5 8.6
2018-Jan-20 20:35N 39°37' W 075°35'1 9.0
2018-Jan-20 20:30N 39°38' W 075°34'4 8.6
2018-Jan-20 20:00N 39°41' W 075°31'4 8.0
2018-Jan-20 19:30N 39°45' W 075°29'4 7.1
2018-Jan-20 19:00N 39°48' W 075°26'3 6.9
2018-Jan-20 18:30N 39°50' W 075°22'3 6.1
2018-Jan-20 18:00N 39°51' W 075°19'3 6.0
2018-Jan-20 17:30N 39°51' W 075°15'0 0.0
2018-Jan-20 17:00N 39°51' W 075°15'0 0.3
2018-Jan-20 16:30N 39°51' W 075°15'3 6.3
2018-Jan-20 16:00N 39°53' W 075°12'0 0.7
2018-Jan-20 15:28N 39°54' W 075°12'0 0.0
2018-Jan-20 14:58N 39°54' W 075°12'0 0.0
2018-Jan-20 14:28N 39°54' W 075°12'0 0.0
2018-Jan-20 13:58N 39°54' W 075°12'0 0.0
2018-Jan-20 13:28N 39°54' W 075°12'0 0.0
2018-Jan-20 12:58N 39°54' W 075°12'0 0.0
2018-Jan-20 12:28N 39°54' W 075°12'0 0.0
2018-Jan-20 11:58N 39°54' W 075°12'0 0.0
2018-Jan-20 11:28N 39°54' W 075°12'0 0.0
2018-Jan-20 10:58N 39°54' W 075°12'0 0.0
2018-Jan-20 10:28N 39°54' W 075°12'0 0.0
2018-Jan-20 09:58N 39°54' W 075°12'0 0.0
2018-Jan-20 09:28N 39°54' W 075°12'0 0.0
2018-Jan-20 08:58N 39°54' W 075°12'0 0.0
2018-Jan-20 08:28N 39°54' W 075°12'0 0.0
2018-Jan-20 07:58N 39°54' W 075°12'0 0.0
2018-Jan-20 07:28N 39°54' W 075°12'0 0.0
2018-Jan-20 06:58N 39°54' W 075°12'0 0.0
2018-Jan-20 06:28N 39°54' W 075°12'0 0.0
2018-Jan-20 05:58N 39°54' W 075°12'0 0.0
2018-Jan-20 05:28N 39°54' W 075°12'0 0.0
2018-Jan-20 04:58N 39°54' W 075°12'0 0.0
2018-Jan-20 04:28N 39°54' W 075°12'0 0.0
2018-Jan-20 03:58N 39°54' W 075°12'0 0.0
2018-Jan-20 03:28N 39°54' W 075°12'0 0.0
2018-Jan-20 02:58N 39°54' W 075°12'0 0.0
2018-Jan-20 02:28N 39°54' W 075°12'0 0.0
2018-Jan-20 01:58N 39°54' W 075°12'0 0.0
2018-Jan-20 01:28N 39°54' W 075°12'0 0.1
2018-Jan-20 01:00N 39°54' W 075°12'0 0.0
2018-Jan-20 00:30N 39°54' W 075°12'0 0.0
2018-Jan-20 00:00N 39°54' W 075°12'0 0.0
2018-Jan-19 23:30N 39°54' W 075°12'0 0.0
2018-Jan-19 23:00N 39°54' W 075°12'0 0.0
2018-Jan-19 22:30N 39°54' W 075°12'0 0.0
2018-Jan-19 22:00N 39°54' W 075°12'0 0.0
2018-Jan-19 21:31N 39°54' W 075°12'4 7.2
2018-Jan-19 21:00N 39°51' W 075°15'0 0.0
2018-Jan-19 20:30N 39°51' W 075°15'1 2.8
2018-Jan-19 20:00N 39°52' W 075°13'0 0.0
2018-Jan-19 19:28N 39°52' W 075°13'0 0.0
2018-Jan-19 18:58N 39°52' W 075°13'0 0.0
2018-Jan-19 18:28N 39°52' W 075°13'0 0.0
2018-Jan-19 17:58N 39°52' W 075°13'0 0.0
2018-Jan-19 17:28N 39°52' W 075°13'0 0.0
2018-Jan-19 16:58N 39°52' W 075°13'0 0.0
2018-Jan-19 16:28N 39°52' W 075°13'0 0.0
2018-Jan-19 15:58N 39°52' W 075°13'0 0.0
2018-Jan-19 15:28N 39°52' W 075°13'0 0.1
2018-Jan-19 14:58N 39°52' W 075°13'0 0.3
2018-Jan-19 14:28N 39°52' W 075°14'0 0.0
2018-Jan-19 13:58N 39°52' W 075°14'0 0.0
2018-Jan-19 13:28N 39°52' W 075°14'0 0.0
2018-Jan-19 12:58N 39°52' W 075°14'0 0.0
2018-Jan-19 12:30N 39°52' W 075°14'2 3.6
2018-Jan-19 12:01N 39°53' W 075°12'2 3.9
2018-Jan-19 11:31N 39°55' W 075°13'0 0.1
2018-Jan-19 11:00N 39°55' W 075°13'0 0.0
2018-Jan-19 10:30N 39°55' W 075°13'0 0.0
2018-Jan-19 10:00N 39°55' W 075°13'0 0.0
2018-Jan-19 09:30N 39°55' W 075°13'0 0.0
2018-Jan-19 09:00N 39°55' W 075°13'0 0.0
2018-Jan-19 08:30N 39°55' W 075°13'0 0.0
2018-Jan-19 08:00N 39°55' W 075°13'0 0.0
2018-Jan-19 07:30N 39°55' W 075°13'0 0.0
2018-Jan-19 07:00N 39°55' W 075°13'0 0.0
2018-Jan-19 06:30N 39°55' W 075°13'0 0.0
2018-Jan-19 06:00N 39°55' W 075°13'0 0.0
2018-Jan-19 05:30N 39°55' W 075°13'0 0.0
2018-Jan-19 05:00N 39°55' W 075°13'1 1.0
2018-Jan-19 04:30N 39°54' W 075°13'2 4.3
2018-Jan-19 04:00N 39°53' W 075°11'2 4.0
2018-Jan-19 03:30N 39°54' W 075°08'0 0.1
2018-Jan-19 02:59N 39°54' W 075°08'0 0.0
2018-Jan-19 02:29N 39°54' W 075°08'0 0.0
2018-Jan-19 01:59N 39°54' W 075°08'0 0.0
2018-Jan-19 01:26N 39°54' W 075°08'0 0.0
2018-Jan-19 00:59N 39°54' W 075°08'0 0.0
2018-Jan-19 00:29N 39°54' W 075°08'0 0.0
2018-Jan-18 23:59N 39°54' W 075°08'0 0.0
2018-Jan-18 23:29N 39°54' W 075°08'0 0.0
2018-Jan-18 22:59N 39°54' W 075°08'0 0.0
2018-Jan-18 22:29N 39°54' W 075°08'0 0.0
2018-Jan-18 21:59N 39°54' W 075°08'0 0.0
2018-Jan-18 21:29N 39°54' W 075°08'0 0.0
2018-Jan-18 20:59N 39°54' W 075°08'0 0.0
2018-Jan-18 20:05N 39°54' W 075°08'0 0.0
2018-Jan-18 19:59N 39°54' W 075°08'0 0.0
2018-Jan-18 19:29N 39°54' W 075°08'0 0.0
2018-Jan-18 18:59N 39°54' W 075°08'0 0.0
2018-Jan-18 18:29N 39°54' W 075°08'0 0.0
2018-Jan-18 17:59N 39°54' W 075°08'0 0.0
2018-Jan-18 17:29N 39°54' W 075°08'0 0.0
2018-Jan-18 16:59N 39°54' W 075°08'0 0.0
2018-Jan-18 16:29N 39°54' W 075°08'0 0.0
2018-Jan-18 15:59N 39°54' W 075°08'0 0.0
2018-Jan-18 15:29N 39°54' W 075°08'0 0.0
2018-Jan-18 14:59N 39°54' W 075°08'0 0.0
2018-Jan-18 14:29N 39°54' W 075°08'0 0.0
2018-Jan-18 13:59N 39°54' W 075°08'0 0.0
2018-Jan-18 13:29N 39°54' W 075°08'0 0.0
2018-Jan-18 12:59N 39°54' W 075°08'0 0.0
2018-Jan-18 12:29N 39°54' W 075°08'0 0.0
2018-Jan-18 11:59N 39°54' W 075°08'0 0.0
2018-Jan-18 11:29N 39°54' W 075°08'0 0.0
2018-Jan-18 10:59N 39°54' W 075°08'0 0.0
2018-Jan-18 10:29N 39°54' W 075°08'0 0.0
2018-Jan-18 09:59N 39°54' W 075°08'0 0.0
2018-Jan-18 09:29N 39°54' W 075°08'0 0.0
2018-Jan-18 08:59N 39°54' W 075°08'0 0.0
2018-Jan-18 08:30N 39°54' W 075°08'0 0.0
2018-Jan-18 08:01N 39°54' W 075°08'1 1.8
2018-Jan-18 07:31N 39°53' W 075°09'1 1.6
2018-Jan-18 06:58N 39°53' W 075°10'0 0.0
2018-Jan-18 06:28N 39°53' W 075°10'0 0.0
2018-Jan-18 05:58N 39°53' W 075°10'0 0.0
2018-Jan-18 05:28N 39°53' W 075°10'0 0.0
2018-Jan-18 04:58N 39°53' W 075°10'0 0.0
2018-Jan-18 04:30N 39°53' W 075°10'2 3.4
2018-Jan-18 04:00N 39°53' W 075°12'5 9.1
2018-Jan-18 03:30N 39°51' W 075°18'4 8.8
2018-Jan-18 03:00N 39°49' W 075°23'4 8.2
2018-Jan-18 02:30N 39°47' W 075°27'5 9.2
2018-Jan-18 02:00N 39°43' W 075°30'3 6.8
2018-Jan-18 01:30N 39°40' W 075°32'3 6.7
2018-Jan-18 01:00N 39°37' W 075°35'7 7.3
2018-Jan-18 00:00N 39°30' W 075°33'0 1.9
2018-Jan-17 23:57N 39°30' W 075°33'  
2018-Jan-12 05:28N 38°48' W 074°56'3 5.8
2018-Jan-12 05:00N 38°48' W 074°60'3 5.5
2018-Jan-12 04:30N 38°50' W 075°02'3 5.9
2018-Jan-12 04:00N 38°53' W 075°04'3 6.3
2018-Jan-12 03:29N 38°56' W 075°05'3 6.3
2018-Jan-12 02:59N 38°58' W 075°08'3 5.9
2018-Jan-12 02:30N 39°01' W 075°09'1 1.5
2018-Jan-12 02:00N 39°02' W 075°10'2 3.7
2018-Jan-12 01:30N 39°03' W 075°10'4 7.3
2018-Jan-12 01:00N 39°07' W 075°12'4 7.0
2018-Jan-12 00:30N 39°09' W 075°15'3 6.7
2018-Jan-12 00:00N 39°12' W 075°17'3 6.2
2018-Jan-11 23:30N 39°15' W 075°19'3 6.2
2018-Jan-11 23:00N 39°17' W 075°22'3 5.9
2018-Jan-11 22:30N 39°19' W 075°25'3 5.7
2018-Jan-11 22:00N 39°22' W 075°27'3 5.8
2018-Jan-11 21:30N 39°24' W 075°30'3 6.1
2018-Jan-11 21:00N 39°26' W 075°32'  
Track history (hours):
 
Tides and Currents Weather Stations Pressure Air Temp Water Temp Dewpoint Dewpoint Depression Visibility Wind Speed Wind Dir Waves Ship Positions

Genesis Valiant

Owner: Genesis Marine, LLC, Houston, TX. More information available from US FCC via Universal Licensing System and Coast Guard Vessel Documentation Center.

Last reported at 2018-Jan-21 20:33 UTC. Time now 2018-Jan-23 03:49 UTC.
Position N 39°33' W 075°33'.

Length 30 m; draft 5.1 m.

Type: Towing. MMSI: 338495000.

Date/timePositionNaut miles runAvg speedWind from/ knotsBaromVisibWave heightAir tempDewpointWater temp
2018-Jan-21 20:33N 39°33' W 075°33'0 0.3
2018-Jan-21 20:30N 39°33' W 075°33'0 0.1
2018-Jan-21 19:30N 39°33' W 075°33'0 0.0
2018-Jan-21 08:54N 39°33' W 075°33'0 0.2
2018-Jan-21 07:51N 39°33' W 075°33'0 0.2
2018-Jan-21 07:30N 39°33' W 075°33'0 0.0
2018-Jan-21 06:57N 39°33' W 075°33'0 0.0
2018-Jan-21 06:30N 39°33' W 075°33'0 0.0
2018-Jan-21 05:57N 39°33' W 075°33'0 0.0
2018-Jan-21 05:30N 39°33' W 075°33'0 0.0
2018-Jan-21 05:00N 39°33' W 075°33'0 0.0
2018-Jan-21 04:24N 39°33' W 075°33'0 0.1
2018-Jan-20 21:10N 39°33' W 075°33'5 8.6
2018-Jan-20 20:35N 39°37' W 075°35'1 9.0
2018-Jan-20 20:30N 39°38' W 075°34'4 8.6
2018-Jan-20 20:00N 39°41' W 075°31'4 8.0
2018-Jan-20 19:30N 39°45' W 075°29'4 7.1
2018-Jan-20 19:00N 39°48' W 075°26'3 6.9
2018-Jan-20 18:30N 39°50' W 075°22'3 6.1
2018-Jan-20 18:00N 39°51' W 075°19'3 6.0
2018-Jan-20 17:30N 39°51' W 075°15'0 0.0
2018-Jan-20 17:00N 39°51' W 075°15'0 0.3
2018-Jan-20 16:30N 39°51' W 075°15'3 6.3
2018-Jan-20 16:00N 39°53' W 075°12'0 0.7
2018-Jan-20 15:28N 39°54' W 075°12'0 0.0
2018-Jan-20 14:58N 39°54' W 075°12'0 0.0
2018-Jan-20 14:28N 39°54' W 075°12'0 0.0
2018-Jan-20 13:58N 39°54' W 075°12'0 0.0
2018-Jan-20 13:28N 39°54' W 075°12'0 0.0
2018-Jan-20 12:58N 39°54' W 075°12'0 0.0
2018-Jan-20 12:28N 39°54' W 075°12'0 0.0
2018-Jan-20 11:58N 39°54' W 075°12'0 0.0
2018-Jan-20 11:28N 39°54' W 075°12'0 0.0
2018-Jan-20 10:58N 39°54' W 075°12'0 0.0
2018-Jan-20 10:28N 39°54' W 075°12'0 0.0
2018-Jan-20 09:58N 39°54' W 075°12'0 0.0
2018-Jan-20 09:28N 39°54' W 075°12'0 0.0
2018-Jan-20 08:58N 39°54' W 075°12'0 0.0
2018-Jan-20 08:28N 39°54' W 075°12'0 0.0
2018-Jan-20 07:58N 39°54' W 075°12'0 0.0
2018-Jan-20 07:28N 39°54' W 075°12'0 0.0
2018-Jan-20 06:58N 39°54' W 075°12'0 0.0
2018-Jan-20 06:28N 39°54' W 075°12'0 0.0
2018-Jan-20 05:58N 39°54' W 075°12'0 0.0
2018-Jan-20 05:28N 39°54' W 075°12'0 0.0
2018-Jan-20 04:58N 39°54' W 075°12'0 0.0
2018-Jan-20 04:28N 39°54' W 075°12'0 0.0
2018-Jan-20 03:58N 39°54' W 075°12'0 0.0
2018-Jan-20 03:28N 39°54' W 075°12'0 0.0
2018-Jan-20 02:58N 39°54' W 075°12'0 0.0
2018-Jan-20 02:28N 39°54' W 075°12'0 0.0
2018-Jan-20 01:58N 39°54' W 075°12'0 0.0
2018-Jan-20 01:28N 39°54' W 075°12'0 0.1
2018-Jan-20 01:00N 39°54' W 075°12'0 0.0
2018-Jan-20 00:30N 39°54' W 075°12'0 0.0
2018-Jan-20 00:00N 39°54' W 075°12'0 0.0
2018-Jan-19 23:30N 39°54' W 075°12'0 0.0
2018-Jan-19 23:00N 39°54' W 075°12'0 0.0
2018-Jan-19 22:30N 39°54' W 075°12'0 0.0
2018-Jan-19 22:00N 39°54' W 075°12'0 0.0
2018-Jan-19 21:31N 39°54' W 075°12'4 7.2
2018-Jan-19 21:00N 39°51' W 075°15'0 0.0
2018-Jan-19 20:30N 39°51' W 075°15'1 2.8
2018-Jan-19 20:00N 39°52' W 075°13'0 0.0
2018-Jan-19 19:28N 39°52' W 075°13'0 0.0
2018-Jan-19 18:58N 39°52' W 075°13'0 0.0
2018-Jan-19 18:28N 39°52' W 075°13'0 0.0
2018-Jan-19 17:58N 39°52' W 075°13'0 0.0
2018-Jan-19 17:28N 39°52' W 075°13'0 0.0
2018-Jan-19 16:58N 39°52' W 075°13'0 0.0
2018-Jan-19 16:28N 39°52' W 075°13'0 0.0
2018-Jan-19 15:58N 39°52' W 075°13'0 0.0
2018-Jan-19 15:28N 39°52' W 075°13'0 0.1
2018-Jan-19 14:58N 39°52' W 075°13'0 0.3
2018-Jan-19 14:28N 39°52' W 075°14'0 0.0
2018-Jan-19 13:58N 39°52' W 075°14'0 0.0
2018-Jan-19 13:28N 39°52' W 075°14'0 0.0
2018-Jan-19 12:58N 39°52' W 075°14'0 0.0
2018-Jan-19 12:30N 39°52' W 075°14'2 3.6
2018-Jan-19 12:01N 39°53' W 075°12'2 3.9
2018-Jan-19 11:31N 39°55' W 075°13'0 0.1
2018-Jan-19 11:00N 39°55' W 075°13'0 0.0
2018-Jan-19 10:30N 39°55' W 075°13'0 0.0
2018-Jan-19 10:00N 39°55' W 075°13'0 0.0
2018-Jan-19 09:30N 39°55' W 075°13'0 0.0
2018-Jan-19 09:00N 39°55' W 075°13'0 0.0
2018-Jan-19 08:30N 39°55' W 075°13'0 0.0
2018-Jan-19 08:00N 39°55' W 075°13'0 0.0
2018-Jan-19 07:30N 39°55' W 075°13'0 0.0
2018-Jan-19 07:00N 39°55' W 075°13'0 0.0
2018-Jan-19 06:30N 39°55' W 075°13'0 0.0
2018-Jan-19 06:00N 39°55' W 075°13'0 0.0
2018-Jan-19 05:30N 39°55' W 075°13'0 0.0
2018-Jan-19 05:00N 39°55' W 075°13'1 1.0
2018-Jan-19 04:30N 39°54' W 075°13'2 4.3
2018-Jan-19 04:00N 39°53' W 075°11'2 4.0
2018-Jan-19 03:30N 39°54' W 075°08'0 0.1
2018-Jan-19 02:59N 39°54' W 075°08'0 0.0
2018-Jan-19 02:29N 39°54' W 075°08'0 0.0
2018-Jan-19 01:59N 39°54' W 075°08'0 0.0
2018-Jan-19 01:26N 39°54' W 075°08'0 0.0
2018-Jan-19 00:59N 39°54' W 075°08'0 0.0
2018-Jan-19 00:29N 39°54' W 075°08'0 0.0
2018-Jan-18 23:59N 39°54' W 075°08'0 0.0
2018-Jan-18 23:29N 39°54' W 075°08'0 0.0
2018-Jan-18 22:59N 39°54' W 075°08'0 0.0
2018-Jan-18 22:29N 39°54' W 075°08'0 0.0
2018-Jan-18 21:59N 39°54' W 075°08'0 0.0
2018-Jan-18 21:29N 39°54' W 075°08'0 0.0
2018-Jan-18 20:59N 39°54' W 075°08'0 0.0
2018-Jan-18 20:05N 39°54' W 075°08'0 0.0
2018-Jan-18 19:59N 39°54' W 075°08'0 0.0
2018-Jan-18 19:29N 39°54' W 075°08'0 0.0
2018-Jan-18 18:59N 39°54' W 075°08'0 0.0
2018-Jan-18 18:29N 39°54' W 075°08'0 0.0
2018-Jan-18 17:59N 39°54' W 075°08'0 0.0
2018-Jan-18 17:29N 39°54' W 075°08'0 0.0
2018-Jan-18 16:59N 39°54' W 075°08'0 0.0
2018-Jan-18 16:29N 39°54' W 075°08'0 0.0
2018-Jan-18 15:59N 39°54' W 075°08'0 0.0
2018-Jan-18 15:29N 39°54' W 075°08'0 0.0
2018-Jan-18 14:59N 39°54' W 075°08'0 0.0
2018-Jan-18 14:29N 39°54' W 075°08'0 0.0
2018-Jan-18 13:59N 39°54' W 075°08'0 0.0
2018-Jan-18 13:29N 39°54' W 075°08'0 0.0
2018-Jan-18 12:59N 39°54' W 075°08'0 0.0
2018-Jan-18 12:29N 39°54' W 075°08'0 0.0
2018-Jan-18 11:59N 39°54' W 075°08'0 0.0
2018-Jan-18 11:29N 39°54' W 075°08'0 0.0
2018-Jan-18 10:59N 39°54' W 075°08'0 0.0
2018-Jan-18 10:29N 39°54' W 075°08'0 0.0
2018-Jan-18 09:59N 39°54' W 075°08'0 0.0
2018-Jan-18 09:29N 39°54' W 075°08'0 0.0
2018-Jan-18 08:59N 39°54' W 075°08'0 0.0
2018-Jan-18 08:30N 39°54' W 075°08'0 0.0
2018-Jan-18 08:01N 39°54' W 075°08'1 1.8
2018-Jan-18 07:31N 39°53' W 075°09'1 1.6
2018-Jan-18 06:58N 39°53' W 075°10'0 0.0
2018-Jan-18 06:28N 39°53' W 075°10'0 0.0
2018-Jan-18 05:58N 39°53' W 075°10'0 0.0
2018-Jan-18 05:28N 39°53' W 075°10'0 0.0
2018-Jan-18 04:58N 39°53' W 075°10'0 0.0
2018-Jan-18 04:30N 39°53' W 075°10'2 3.4
2018-Jan-18 04:00N 39°53' W 075°12'5 9.1
2018-Jan-18 03:30N 39°51' W 075°18'4 8.8
2018-Jan-18 03:00N 39°49' W 075°23'4 8.2
2018-Jan-18 02:30N 39°47' W 075°27'5 9.2
2018-Jan-18 02:00N 39°43' W 075°30'3 6.8
2018-Jan-18 01:30N 39°40' W 075°32'3 6.7
2018-Jan-18 01:00N 39°37' W 075°35'7 7.3
2018-Jan-18 00:00N 39°30' W 075°33'0 1.9
2018-Jan-17 23:57N 39°30' W 075°33'  
2018-Jan-12 05:28N 38°48' W 074°56'3 5.8
2018-Jan-12 05:00N 38°48' W 074°60'3 5.5
2018-Jan-12 04:30N 38°50' W 075°02'3 5.9
2018-Jan-12 04:00N 38°53' W 075°04'3 6.3
2018-Jan-12 03:29N 38°56' W 075°05'3 6.3
2018-Jan-12 02:59N 38°58' W 075°08'3 5.9
2018-Jan-12 02:30N 39°01' W 075°09'1 1.5
2018-Jan-12 02:00N 39°02' W 075°10'2 3.7
2018-Jan-12 01:30N 39°03' W 075°10'4 7.3
2018-Jan-12 01:00N 39°07' W 075°12'4 7.0
2018-Jan-12 00:30N 39°09' W 075°15'3 6.7
2018-Jan-12 00:00N 39°12' W 075°17'3 6.2
2018-Jan-11 23:30N 39°15' W 075°19'3 6.2
2018-Jan-11 23:00N 39°17' W 075°22'3 5.9
2018-Jan-11 22:30N 39°19' W 075°25'3 5.7
2018-Jan-11 22:00N 39°22' W 075°27'3 5.8
2018-Jan-11 21:30N 39°24' W 075°30'3 6.1
2018-Jan-11 21:00N 39°26' W 075°32'  

Dump ship's entire track history